Tuesday, October 17, 2017, 2:54 PM EDT
Back to Local

KSFZ, Pawtucket, North Central State Airport

Location: Smithfield, RI, United States Lat: 41.917
Local Time: 2:54 PM EDT (18:54 GMT) Lon: -71.5
Time Zone: US/Eastern Elev: 439 ft

Show me the last for .
Show Decoded

2017-10-17 13:56 METAR KSFZ 171756Z AUTO 00000KT 10SM CLR 12/M01 A3025 RMK AO2 SLP192 T01221011
                 10128 20028 58014 =
2017-10-17 12:56 METAR KSFZ 171656Z AUTO VRB04KT 10SM CLR 12/M01 A3027 RMK AO2 SLP197 T01171011 =
2017-10-17 11:56 METAR KSFZ 171556Z AUTO VRB04KT 10SM CLR 10/M02 A3028 RMK AO2 SLP203 T01001017 =
2017-10-17 10:56 METAR KSFZ 171456Z AUTO VRB05KT 10SM CLR 09/M01 A3029 RMK AO2 SLP206 T00941011
                 50002 =
2017-10-17 09:56 METAR KSFZ 171356Z AUTO VRB04KT 10SM CLR 08/01 A3030 RMK AO2 SLP209 T00780006
                 TSNO =
2017-10-17 08:56 METAR KSFZ 171256Z AUTO 01007KT 10SM CLR 05/01 A3030 RMK AO2 SLP208 T00500006 =
2017-10-17 07:56 METAR KSFZ 171156Z AUTO 33005KT 10SM CLR 02/01 A3029 RMK AO2 SLP204 T00220011
                 10028 21006 53021 FZRANO =
2017-10-17 06:56 METAR KSFZ 171056Z AUTO 32006KT 10SM CLR 00/M01 A3026 RMK AO2 SLP195 T00001011
                 FZRANO =
2017-10-17 05:56 METAR KSFZ 170956Z AUTO 34005KT 10SM CLR 01/M01 A3024 RMK AO2 SLP189 T00061006
                 FZRANO =
2017-10-17 04:56 METAR KSFZ 170856Z AUTO 35005KT 10SM CLR 01/M01 A3022 RMK AO2 SLP183 T00111006
                 53017 FZRANO =
2017-10-17 03:56 METAR KSFZ 170756Z AUTO 35004KT 10SM CLR 02/M01 A3020 RMK AO2 SLP176 T00171006
                 FZRANO =
2017-10-17 02:56 METAR KSFZ 170656Z AUTO 33005KT 10SM CLR 02/00 A3018 RMK AO2 SLP169 T00220000
                 FZRANO =
2017-10-17 01:56 METAR KSFZ 170556Z AUTO 33005KT 10SM CLR 02/00 A3017 RMK AO2 SLP165 T00220000
                 10083 20022 51008 FZRANO =
2017-10-17 00:56 METAR KSFZ 170456Z AUTO 35004KT 10SM CLR 04/00 A3017 RMK AO2 SLP164 T00390000
                 402000033 =
2017-10-16 22:56 METAR KSFZ 170256Z AUTO 36009KT 10SM CLR 06/01 A3015 RMK AO2 SLP156 T00610006
                 51026 =
2017-10-16 21:56 METAR KSFZ 170156Z AUTO 01010KT 10SM CLR 07/02 A3013 RMK AO2 SLP150 T00670022 =
2017-10-16 20:56 METAR KSFZ 170056Z AUTO 36006KT 10SM CLR 07/03 A3010 RMK AO2 SLP139 T00670028 =
2017-10-16 19:56 METAR KSFZ 162356Z AUTO 34008KT 10SM CLR 08/03 A3007 RMK AO2 SLP130 T00830028
                 10128 20083 51024 =
2017-10-16 18:56 METAR KSFZ 162256Z AUTO 33008KT 10SM CLR 09/03 A3006 RMK AO2 SLP125 T00890033 =
2017-10-16 17:56 METAR KSFZ 162156Z AUTO 32006KT 10SM CLR 10/04 A3002 RMK AO2 SLP112 T01000044 =
2017-10-16 16:56 METAR KSFZ 162056Z AUTO 34010G17KT 10SM CLR 11/04 A3000 RMK AO2 SLP105 T01060044
                 53021 =
2017-10-16 15:56 METAR KSFZ 161956Z AUTO 32011KT 10SM CLR 11/05 A2998 RMK AO2 SLP097 T01110050 =
2017-10-16 14:56 METAR KSFZ 161856Z AUTO 33009KT 10SM CLR 12/06 A2996 RMK AO2 SLP090 T01220061
                 TSNO =

Support USWX by starting your Amazon purchase here.